Portada
METAR-TAF:

METAR-TAF

Aeroports :

Kisarazu, Japó

latitud: 35-24N, longitud: 139-55E, altitud: 3 m

Observació

L'informe es va fer fa 3 hores i 32 minuts, a les 01:39 UTC
Vent 6 kt del Oest/Sud-Oest
Temperatura 15°C
Humitat 77%
Pressió 1002 hPa
Visibilitat 10 km o més
Escasses núvols a una alçada de 1500 ft
Núvols disperses a una alçada de 7000 ft

METAR: RJTK 290139Z 24006KT 9999 FEW015 SCT070 15/11 Q1002 RMK 1CU015 3AC070 A2960 P/FR

Hora: 14:11 (05:11 UTC)


TAF: manca

Observacions i pronòstics meteorològics de més de 4000 aeroports (METAR i TAF).

Les estacions disponibles són els punts grocs i vermells al mapa.

Posi el ratolí al punt desitjat per veure el nom de l'estació.

Feu clic per veure les observacions i els pronòstics meteorològics.

Per canviar el mapa: feu clic els botons verds amb una creu de color negre per apropar; al botó verd amb un guió per allunyar la imatge; o en les fletxes verdes per a mapes adjacents.


METAR-TAF: